Northern Sonoma County Latest

25 Stations

15 Minute Data | America/Los_Angeles
as of 5/5/26 10:12 PM PDT
Station Date Time Temp (°F) RH (%) Dew Pt (°F) Wind Spd (mph) Wind Dir (°) Wind Gust (mph) Latest Rain (In) Daily Rain (In) Daily Max Temp (°F) Daily Min Temp (°F)
Bavarian Lion EFW 5/5/26 2200 56.5   3.0 - - - - - 0.00 0.01 65.6   1.9 52.1   5.2
Rockpile Lower (Cooley) 5/5/26 2145 54.2   3.3 82   4 49.0   1.9 3.4   6.2 WNW | 294 5.5   11.2 0.00 0.00 66.4   4.0 48.6   0.1
Rockpile Upper (Cooley) 5/5/26 2200 50.3   3.0 91   5 47.8   1.6 6.9   7.0 NNW | 327 10.1   14.2 0.00 0.00 63.7   3.6 45.0   0.4
Lower Dry Creek Valley 5/5/26 2200 58.2   4.0 77   23 51.0   3.2 2.4   0.5 SE | 141 8.2   2.3 0.00 0.01 70.3   1.1 51.7   3.2
Geyserville-South (Nervo Station) 5/5/26 2200 57.7   4.2 - - 3.3   0.7 ESE | 120 5.8   0.0 0.00 0.00 69.2   0.6 50.5   0.4
Franz Valley (Stornetta) 5/5/26 2200 55.6   2.7 80   13 49.6   1.3 4.6   3.8 SE | 139 8.8   5.6 0.00 0.05 63.7   1.9 51.4   5.6
Geyserville (Ranch 3) 5/5/26 2200 59.0   4.0 75   25 51.0   4.0 3.3   2.2 ESE | 119 6.9   3.4 0.00 0.00 68.9   1.2 52.1   0.5
Geyserville-North (Hoffman) 5/5/26 2200 59.1   3.7 75   20 51.1   2.7 4.6   2.4 SE | 129 9.1   5.7 0.00 0.00 71.4   3.7 51.1   0.2
Knights Valley (Bavarian Lion) 5/5/26 2200 56.1   3.2 78   16 49.3   1.9 2.6   2.3 S | 170 5.1   1.8 0.00 0.01 64.8   2.3 51.3   4.5
HWY 128/Chalk Hill Rd (Landslide) 5/5/26 2200 57.5   3.9 78   17 50.8   1.4 2.4   0.1 SSW | 199 4.5   2.1 0.00 0.02 67.2   1.0 52.4   1.9
Newman Knights Valley 5/5/26 2200 57.1   3.2 78   7 50.5   0.6 2.0   0.5 ESE | 116 4.4   1.4 0.00 0.01 64.7   0.9 52.6   2.0
Jimtown-North (Piccolo Ranch 15) 5/5/26 2200 57.8   3.7 74   26 49.4   4.6 0.7   0.0 SSE | 158 3.3   0.7 0.00 0.00 71.9   5.0 52.1   1.1
Peterson (Ranch 09) 5/5/26 2200 57.4   4.3 75   18 49.7   1.6 2.8   1.4 ESE | 112 5.6   1.9 0.00 0.00 68.3   0.9 51.7   1.9
Cloverdale-SE (Ranch 38) 5/5/26 2200 58.0   4.2 80   16 51.8   0.8 4.5   2.1 SSE | 153 7.3   0.5 0.00 0.00 69.4   5.4 50.2   0.6
Geyserville-East (Ranch 40) 5/5/26 2200 55.5   3.6 84   16 50.8   1.1 7.8   0.4 SSE | 160 11.7   1.6 0.00 0.00 69.8   2.9 49.9   0.7
N Chalk Hill Rd (Ranch 63) 5/5/26 2200 56.7   6.2 79   21 50.2   0.3 2.3   1.4 SSE | 157 5.0   2.8 0.00 0.00 66.6   1.2 49.0   0.1
Cloverdale-East (Ranch 83) 5/5/26 2200 60.2   5.0 - - 1.2   0.7 WNW | 295 3.8   1.0 0.00 0.00 71.5   5.6 49.3   1.6
Crazy Creek Ranch 5/5/26 2200 58.0   4.1 81   16 52.2   1.0 2.0   0.2 SSE | 164 4.9   0.6 0.00 0.00 68.4   1.6 52.0   0.5
Lytton East (Hill 5) 5/5/26 2200 56.9   4.1 78   18 50.3   1.7 3.8   1.7 SSE | 152 6.9   2.2 0.00 0.01 68.7   1.4 50.6   1.4
Lytton East (Shop Hill Bottom) 5/5/26 2200 57.2   4.0 77   19 50.0   1.9 2.5   1.8 SE | 126 5.2   1.4 0.00 0.00 69.1   2.0 51.0   2.6
Lytton West Hill (23PS) 5/5/26 2200 57.6   4.0 78   22 50.7   2.8 3.3   1.6 SE | 124 7.2   0.5 0.00 0.00 70.1   2.9 51.7   2.6
Lytton West Lower (Lew 6) 5/5/26 2200 57.5   4.1 77   23 50.3   3.1 2.9   0.7 ESE | 108 7.7   0.1 0.00 0.01 70.1   3.2 51.3   3.8
Whitton Ranch (201e) 5/5/26 2200 57.8   4.1 78   19 50.9   1.9 2.9   0.3 ESE | 105 4.6   0.2 0.00 0.00 69.2   1.1 51.2   1.4
Upper Dry Creek Valley 5/5/26 2145 60.0   5.0 72   21 51.0   2.0 2.2   1.4 SSW | 212 3.9   1.4 0.00 0.01 71.7   3.9 51.3   3.1
Big River 5/5/26 2200 57.0   3.8 82   15 51.5   0.9 1.1   4.4 SSE | 160 3.7   6.1 0.00 0.01 66.3   1.0 52.0   3.1
Max     60.2 91 52.2 7.8 - 11.7 0.00 0.05 71.9 52.6
Avg     57.2 79 50.4 3.1 - 6.2 0.00 - - -
Min     50.3 72 47.8 0.7 - 3.3 0.00 0.00 63.7 45.0